sensor_id;sensor_type;location;lat;lon;timestamp;temperature;humidity
3186;DHT22;1604;53.700;10.252;2023-09-19T00:01:36;16.70;99.90
3186;DHT22;1604;53.700;10.252;2023-09-19T00:04:39;16.70;99.90
3186;DHT22;1604;53.700;10.252;2023-09-19T00:07:43;16.70;99.90
3186;DHT22;1604;53.700;10.252;2023-09-19T00:10:45;16.70;99.90
3186;DHT22;1604;53.700;10.252;2023-09-19T00:13:50;16.80;99.90
3186;DHT22;1604;53.700;10.252;2023-09-19T00:16:52;16.80;99.90
3186;DHT22;1604;53.700;10.252;2023-09-19T00:19:55;16.90;99.90
3186;DHT22;1604;53.700;10.252;2023-09-19T00:22:57;16.80;99.90
3186;DHT22;1604;53.700;10.252;2023-09-19T00:26:06;16.70;99.90
3186;DHT22;1604;53.700;10.252;2023-09-19T00:29:09;16.70;99.90
3186;DHT22;1604;53.700;10.252;2023-09-19T00:32:13;16.70;99.90
3186;DHT22;1604;53.700;10.252;2023-09-19T00:35:15;16.60;99.90
3186;DHT22;1604;53.700;10.252;2023-09-19T00:38:17;16.60;99.90
3186;DHT22;1604;53.700;10.252;2023-09-19T00:41:22;16.60;99.90
3186;DHT22;1604;53.700;10.252;2023-09-19T00:44:26;16.60;99.90
3186;DHT22;1604;53.700;10.252;2023-09-19T00:47:29;16.50;99.90
3186;DHT22;1604;53.700;10.252;2023-09-19T00:50:31;16.60;99.90
3186;DHT22;1604;53.700;10.252;2023-09-19T00:53:34;16.50;99.90
3186;DHT22;1604;53.700;10.252;2023-09-19T00:56:36;16.50;99.90
3186;DHT22;1604;53.700;10.252;2023-09-19T00:59:42;16.50;99.90
3186;DHT22;1604;53.700;10.252;2023-09-19T01:02:44;16.40;99.90
3186;DHT22;1604;53.700;10.252;2023-09-19T01:05:46;16.40;99.90
3186;DHT22;1604;53.700;10.252;2023-09-19T01:08:48;16.50;99.90
3186;DHT22;1604;53.700;10.252;2023-09-19T01:11:51;16.40;99.90
3186;DHT22;1604;53.700;10.252;2023-09-19T01:15:02;16.40;99.90
3186;DHT22;1604;53.700;10.252;2023-09-19T01:18:14;16.40;99.90
3186;DHT22;1604;53.700;10.252;2023-09-19T01:21:23;16.40;99.90
3186;DHT22;1604;53.700;10.252;2023-09-19T01:24:54;16.40;99.90
3186;DHT22;1604;53.700;10.252;2023-09-19T01:28:28;16.40;99.90
3186;DHT22;1604;53.700;10.252;2023-09-19T01:31:34;16.50;99.90
3186;DHT22;1604;53.700;10.252;2023-09-19T01:34:46;16.40;99.90
3186;DHT22;1604;53.700;10.252;2023-09-19T01:37:49;16.40;99.90
3186;DHT22;1604;53.700;10.252;2023-09-19T01:40:58;16.40;99.90
3186;DHT22;1604;53.700;10.252;2023-09-19T01:44:06;16.40;99.90
3186;DHT22;1604;53.700;10.252;2023-09-19T01:47:19;16.40;99.90
3186;DHT22;1604;53.700;10.252;2023-09-19T01:50:28;16.40;99.90
3186;DHT22;1604;53.700;10.252;2023-09-19T01:53:35;16.30;99.90
3186;DHT22;1604;53.700;10.252;2023-09-19T01:56:42;16.30;99.90
3186;DHT22;1604;53.700;10.252;2023-09-19T01:59:52;16.20;99.90
3186;DHT22;1604;53.700;10.252;2023-09-19T02:02:59;16.30;99.90
3186;DHT22;1604;53.700;10.252;2023-09-19T02:06:02;16.20;99.90
3186;DHT22;1604;53.700;10.252;2023-09-19T02:09:05;16.20;99.90
3186;DHT22;1604;53.700;10.252;2023-09-19T02:12:08;16.20;99.90
3186;DHT22;1604;53.700;10.252;2023-09-19T02:15:11;16.10;99.90
3186;DHT22;1604;53.700;10.252;2023-09-19T02:18:14;16.20;99.90
3186;DHT22;1604;53.700;10.252;2023-09-19T02:21:16;16.20;99.90
3186;DHT22;1604;53.700;10.252;2023-09-19T02:24:18;16.10;99.90
3186;DHT22;1604;53.700;10.252;2023-09-19T02:27:20;16.20;99.90
3186;DHT22;1604;53.700;10.252;2023-09-19T02:30:22;16.10;99.90
3186;DHT22;1604;53.700;10.252;2023-09-19T02:33:27;16.10;99.90
3186;DHT22;1604;53.700;10.252;2023-09-19T02:36:33;16.10;99.90
3186;DHT22;1604;53.700;10.252;2023-09-19T02:39:35;16.10;99.90
3186;DHT22;1604;53.700;10.252;2023-09-19T02:42:38;16.00;99.90
3186;DHT22;1604;53.700;10.252;2023-09-19T02:45:40;16.00;99.90
3186;DHT22;1604;53.700;10.252;2023-09-19T02:48:43;15.90;99.90
3186;DHT22;1604;53.700;10.252;2023-09-19T02:51:45;15.90;99.90
3186;DHT22;1604;53.700;10.252;2023-09-19T02:54:48;15.90;99.90
3186;DHT22;1604;53.700;10.252;2023-09-19T02:57:51;15.90;99.90
3186;DHT22;1604;53.700;10.252;2023-09-19T03:00:55;15.80;99.90
3186;DHT22;1604;53.700;10.252;2023-09-19T03:04:00;15.80;99.90
3186;DHT22;1604;53.700;10.252;2023-09-19T03:07:03;15.80;99.90
3186;DHT22;1604;53.700;10.252;2023-09-19T03:10:06;15.80;99.90
3186;DHT22;1604;53.700;10.252;2023-09-19T03:13:09;15.80;99.90
3186;DHT22;1604;53.700;10.252;2023-09-19T03:16:11;15.90;99.90
3186;DHT22;1604;53.700;10.252;2023-09-19T03:19:17;15.80;99.90
3186;DHT22;1604;53.700;10.252;2023-09-19T03:22:21;15.80;99.90
3186;DHT22;1604;53.700;10.252;2023-09-19T03:25:25;15.80;99.90
3186;DHT22;1604;53.700;10.252;2023-09-19T03:28:27;15.80;99.90
3186;DHT22;1604;53.700;10.252;2023-09-19T03:31:30;15.80;99.90
3186;DHT22;1604;53.700;10.252;2023-09-19T03:34:33;15.80;99.90
3186;DHT22;1604;53.700;10.252;2023-09-19T03:37:38;15.80;99.90
3186;DHT22;1604;53.700;10.252;2023-09-19T03:40:43;15.80;99.90
3186;DHT22;1604;53.700;10.252;2023-09-19T03:43:45;15.90;99.90
3186;DHT22;1604;53.700;10.252;2023-09-19T03:46:47;15.90;99.90
3186;DHT22;1604;53.700;10.252;2023-09-19T03:49:52;15.80;99.90
3186;DHT22;1604;53.700;10.252;2023-09-19T03:52:56;15.80;99.90
3186;DHT22;1604;53.700;10.252;2023-09-19T03:55:58;15.80;99.90
3186;DHT22;1604;53.700;10.252;2023-09-19T03:59:00;15.70;99.90
3186;DHT22;1604;53.700;10.252;2023-09-19T04:02:03;15.70;99.90
3186;DHT22;1604;53.700;10.252;2023-09-19T04:05:13;15.70;99.90
3186;DHT22;1604;53.700;10.252;2023-09-19T04:08:15;15.70;99.90
3186;DHT22;1604;53.700;10.252;2023-09-19T04:11:18;15.70;99.90
3186;DHT22;1604;53.700;10.252;2023-09-19T04:14:20;15.60;99.90
3186;DHT22;1604;53.700;10.252;2023-09-19T04:17:21;15.70;99.90
3186;DHT22;1604;53.700;10.252;2023-09-19T04:20:25;15.70;99.90
3186;DHT22;1604;53.700;10.252;2023-09-19T04:23:30;15.70;99.90
3186;DHT22;1604;53.700;10.252;2023-09-19T04:26:32;15.70;99.90
3186;DHT22;1604;53.700;10.252;2023-09-19T04:29:34;15.60;99.90
3186;DHT22;1604;53.700;10.252;2023-09-19T04:32:36;15.60;99.90
3186;DHT22;1604;53.700;10.252;2023-09-19T04:35:40;15.60;99.90
3186;DHT22;1604;53.700;10.252;2023-09-19T04:38:43;15.50;99.90
3186;DHT22;1604;53.700;10.252;2023-09-19T04:41:44;15.40;99.90
3186;DHT22;1604;53.700;10.252;2023-09-19T04:44:48;15.30;99.90
3186;DHT22;1604;53.700;10.252;2023-09-19T04:47:50;15.30;99.90
3186;DHT22;1604;53.700;10.252;2023-09-19T04:50:54;15.20;99.90
3186;DHT22;1604;53.700;10.252;2023-09-19T04:53:56;15.10;99.90
3186;DHT22;1604;53.700;10.252;2023-09-19T04:56:58;15.10;99.90
3186;DHT22;1604;53.700;10.252;2023-09-19T05:00:01;15.10;99.90
3186;DHT22;1604;53.700;10.252;2023-09-19T05:03:04;15.00;99.90
3186;DHT22;1604;53.700;10.252;2023-09-19T05:06:07;14.90;99.90
3186;DHT22;1604;53.700;10.252;2023-09-19T05:09:23;14.80;99.90
3186;DHT22;1604;53.700;10.252;2023-09-19T05:12:26;14.80;99.90
3186;DHT22;1604;53.700;10.252;2023-09-19T05:15:42;14.80;99.90
3186;DHT22;1604;53.700;10.252;2023-09-19T05:18:44;14.80;99.90
3186;DHT22;1604;53.700;10.252;2023-09-19T05:21:47;14.70;99.90
3186;DHT22;1604;53.700;10.252;2023-09-19T05:24:49;14.70;99.90
3186;DHT22;1604;53.700;10.252;2023-09-19T05:27:53;14.70;99.90
3186;DHT22;1604;53.700;10.252;2023-09-19T05:30:55;14.70;99.90
3186;DHT22;1604;53.700;10.252;2023-09-19T05:33:58;14.60;99.90
3186;DHT22;1604;53.700;10.252;2023-09-19T05:37:06;14.50;99.90
3186;DHT22;1604;53.700;10.252;2023-09-19T05:40:09;14.60;99.90
3186;DHT22;1604;53.700;10.252;2023-09-19T05:43:12;14.50;99.90
3186;DHT22;1604;53.700;10.252;2023-09-19T05:46:15;14.50;99.90
3186;DHT22;1604;53.700;10.252;2023-09-19T05:49:17;14.50;99.90
3186;DHT22;1604;53.700;10.252;2023-09-19T05:52:23;14.50;99.90
3186;DHT22;1604;53.700;10.252;2023-09-19T05:55:25;14.50;99.90
3186;DHT22;1604;53.700;10.252;2023-09-19T05:58:29;14.60;99.90
3186;DHT22;1604;53.700;10.252;2023-09-19T06:01:30;14.60;99.90
3186;DHT22;1604;53.700;10.252;2023-09-19T06:04:33;14.70;99.90
3186;DHT22;1604;53.700;10.252;2023-09-19T06:07:36;14.80;99.90
3186;DHT22;1604;53.700;10.252;2023-09-19T06:10:38;14.90;99.90
3186;DHT22;1604;53.700;10.252;2023-09-19T06:13:40;15.00;99.90
3186;DHT22;1604;53.700;10.252;2023-09-19T06:16:42;15.10;99.90
3186;DHT22;1604;53.700;10.252;2023-09-19T06:19:44;15.30;99.90
3186;DHT22;1604;53.700;10.252;2023-09-19T06:22:49;15.50;99.90
3186;DHT22;1604;53.700;10.252;2023-09-19T06:25:52;15.60;99.90
3186;DHT22;1604;53.700;10.252;2023-09-19T06:28:54;15.80;99.90
3186;DHT22;1604;53.700;10.252;2023-09-19T06:31:56;15.90;99.90
3186;DHT22;1604;53.700;10.252;2023-09-19T06:34:58;15.90;99.90
3186;DHT22;1604;53.700;10.252;2023-09-19T06:38:04;16.00;99.90
3186;DHT22;1604;53.700;10.252;2023-09-19T06:41:07;16.00;99.90
3186;DHT22;1604;53.700;10.252;2023-09-19T06:44:09;16.00;99.90
3186;DHT22;1604;53.700;10.252;2023-09-19T06:47:11;16.00;99.90
3186;DHT22;1604;53.700;10.252;2023-09-19T06:50:13;16.00;99.90
3186;DHT22;1604;53.700;10.252;2023-09-19T06:53:16;15.90;99.90
3186;DHT22;1604;53.700;10.252;2023-09-19T06:56:19;16.00;99.90
3186;DHT22;1604;53.700;10.252;2023-09-19T06:59:26;16.00;99.90
3186;DHT22;1604;53.700;10.252;2023-09-19T07:02:28;16.00;99.90
3186;DHT22;1604;53.700;10.252;2023-09-19T07:05:30;16.00;99.90
3186;DHT22;1604;53.700;10.252;2023-09-19T07:08:34;16.00;99.90
3186;DHT22;1604;53.700;10.252;2023-09-19T07:11:36;16.10;99.90
3186;DHT22;1604;53.700;10.252;2023-09-19T07:14:38;16.10;99.90
3186;DHT22;1604;53.700;10.252;2023-09-19T07:17:41;16.20;99.90
3186;DHT22;1604;53.700;10.252;2023-09-19T07:20:43;16.10;99.90
3186;DHT22;1604;53.700;10.252;2023-09-19T07:23:50;16.20;99.90
3186;DHT22;1604;53.700;10.252;2023-09-19T07:26:52;16.20;99.90
3186;DHT22;1604;53.700;10.252;2023-09-19T07:29:54;16.30;99.90
3186;DHT22;1604;53.700;10.252;2023-09-19T07:32:56;16.40;99.90
3186;DHT22;1604;53.700;10.252;2023-09-19T07:35:58;16.40;99.90
3186;DHT22;1604;53.700;10.252;2023-09-19T07:39:03;16.40;99.90
3186;DHT22;1604;53.700;10.252;2023-09-19T07:42:07;16.50;99.90
3186;DHT22;1604;53.700;10.252;2023-09-19T07:45:10;16.50;99.90
3186;DHT22;1604;53.700;10.252;2023-09-19T07:48:14;16.50;99.90
3186;DHT22;1604;53.700;10.252;2023-09-19T07:51:17;16.50;99.90
3186;DHT22;1604;53.700;10.252;2023-09-19T07:54:20;16.50;99.90
3186;DHT22;1604;53.700;10.252;2023-09-19T07:57:22;16.60;99.90
3186;DHT22;1604;53.700;10.252;2023-09-19T08:00:25;16.60;99.90
3186;DHT22;1604;53.700;10.252;2023-09-19T08:03:27;16.50;99.90
3186;DHT22;1604;53.700;10.252;2023-09-19T08:06:29;16.50;99.90
3186;DHT22;1604;53.700;10.252;2023-09-19T08:09:32;16.40;99.90
3186;DHT22;1604;53.700;10.252;2023-09-19T08:12:34;16.30;99.90
3186;DHT22;1604;53.700;10.252;2023-09-19T08:15:43;16.40;99.90
3186;DHT22;1604;53.700;10.252;2023-09-19T08:18:47;16.40;99.90
3186;DHT22;1604;53.700;10.252;2023-09-19T08:21:49;16.30;99.90
3186;DHT22;1604;53.700;10.252;2023-09-19T08:24:52;16.30;99.80
3186;DHT22;1604;53.700;10.252;2023-09-19T08:27:55;16.30;99.20
3186;DHT22;1604;53.700;10.252;2023-09-19T08:31:01;16.20;99.40
3186;DHT22;1604;53.700;10.252;2023-09-19T08:34:05;16.20;99.90
3186;DHT22;1604;53.700;10.252;2023-09-19T08:37:10;16.30;99.90
3186;DHT22;1604;53.700;10.252;2023-09-19T08:40:14;16.30;99.90
3186;DHT22;1604;53.700;10.252;2023-09-19T08:43:21;16.30;99.90
3186;DHT22;1604;53.700;10.252;2023-09-19T08:46:25;16.30;99.90
3186;DHT22;1604;53.700;10.252;2023-09-19T08:49:36;16.30;99.90
3186;DHT22;1604;53.700;10.252;2023-09-19T08:52:43;16.30;99.90
3186;DHT22;1604;53.700;10.252;2023-09-19T08:55:47;16.40;99.90
3186;DHT22;1604;53.700;10.252;2023-09-19T08:58:51;16.40;99.90
3186;DHT22;1604;53.700;10.252;2023-09-19T09:01:54;16.40;99.90
3186;DHT22;1604;53.700;10.252;2023-09-19T09:04:57;16.40;99.90
3186;DHT22;1604;53.700;10.252;2023-09-19T09:08:00;16.30;99.90
3186;DHT22;1604;53.700;10.252;2023-09-19T09:11:04;16.40;99.90
3186;DHT22;1604;53.700;10.252;2023-09-19T09:14:08;16.40;99.90
3186;DHT22;1604;53.700;10.252;2023-09-19T09:17:11;16.50;99.90
3186;DHT22;1604;53.700;10.252;2023-09-19T09:20:13;16.50;99.90
3186;DHT22;1604;53.700;10.252;2023-09-19T09:23:15;16.50;99.90
3186;DHT22;1604;53.700;10.252;2023-09-19T09:26:44;16.60;99.90
3186;DHT22;1604;53.700;10.252;2023-09-19T09:30:01;16.70;99.90
3186;DHT22;1604;53.700;10.252;2023-09-19T09:33:09;16.70;99.50
3186;DHT22;1604;53.700;10.252;2023-09-19T09:36:36;16.70;99.90
3186;DHT22;1604;53.700;10.252;2023-09-19T09:40:14;16.80;98.90
3186;DHT22;1604;53.700;10.252;2023-09-19T09:47:08;16.90;99.40
3186;DHT22;1604;53.700;10.252;2023-09-19T09:50:29;17.10;99.60
3186;DHT22;1604;53.700;10.252;2023-09-19T09:54:10;17.20;98.50
3186;DHT22;1604;53.700;10.252;2023-09-19T09:57:26;17.30;98.30
3186;DHT22;1604;53.700;10.252;2023-09-19T10:00:53;17.40;97.70
3186;DHT22;1604;53.700;10.252;2023-09-19T10:04:09;17.60;95.90
3186;DHT22;1604;53.700;10.252;2023-09-19T10:07:31;17.80;96.50
3186;DHT22;1604;53.700;10.252;2023-09-19T10:10:53;17.90;94.80
3186;DHT22;1604;53.700;10.252;2023-09-19T10:14:11;18.00;94.90
3186;DHT22;1604;53.700;10.252;2023-09-19T10:17:49;18.20;95.40
3186;DHT22;1604;53.700;10.252;2023-09-19T10:20:57;18.30;94.60
3186;DHT22;1604;53.700;10.252;2023-09-19T10:24:15;18.50;92.10
3186;DHT22;1604;53.700;10.252;2023-09-19T10:27:18;18.50;89.30
3186;DHT22;1604;53.700;10.252;2023-09-19T10:30:22;18.50;90.60
3186;DHT22;1604;53.700;10.252;2023-09-19T10:33:26;18.60;91.80
3186;DHT22;1604;53.700;10.252;2023-09-19T10:36:33;18.60;89.90
3186;DHT22;1604;53.700;10.252;2023-09-19T10:39:36;18.60;88.50
3186;DHT22;1604;53.700;10.252;2023-09-19T10:42:42;18.70;86.70
3186;DHT22;1604;53.700;10.252;2023-09-19T10:45:49;18.70;85.00
3186;DHT22;1604;53.700;10.252;2023-09-19T10:48:59;18.70;86.70
3186;DHT22;1604;53.700;10.252;2023-09-19T10:52:01;18.90;87.60
3186;DHT22;1604;53.700;10.252;2023-09-19T10:55:05;19.20;85.00
3186;DHT22;1604;53.700;10.252;2023-09-19T10:58:07;19.30;82.30
3186;DHT22;1604;53.700;10.252;2023-09-19T11:01:16;19.20;82.00
3186;DHT22;1604;53.700;10.252;2023-09-19T11:04:24;19.20;83.50
3186;DHT22;1604;53.700;10.252;2023-09-19T11:07:26;19.20;85.20
3186;DHT22;1604;53.700;10.252;2023-09-19T11:10:45;19.20;85.40
3186;DHT22;1604;53.700;10.252;2023-09-19T11:14:14;19.20;85.10
3186;DHT22;1604;53.700;10.252;2023-09-19T11:17:40;19.20;81.00
3186;DHT22;1604;53.700;10.252;2023-09-19T11:20:44;19.10;84.00
3186;DHT22;1604;53.700;10.252;2023-09-19T11:24:28;19.10;83.10
3186;DHT22;1604;53.700;10.252;2023-09-19T11:27:31;18.90;83.30
3186;DHT22;1604;53.700;10.252;2023-09-19T11:30:36;18.80;84.10
3186;DHT22;1604;53.700;10.252;2023-09-19T11:33:38;18.80;85.10
3186;DHT22;1604;53.700;10.252;2023-09-19T11:36:48;18.80;85.90
3186;DHT22;1604;53.700;10.252;2023-09-19T11:40:05;18.80;85.30
3186;DHT22;1604;53.700;10.252;2023-09-19T11:43:29;18.80;86.00
3186;DHT22;1604;53.700;10.252;2023-09-19T11:46:52;18.70;85.50
3186;DHT22;1604;53.700;10.252;2023-09-19T11:49:55;18.60;86.70
3186;DHT22;1604;53.700;10.252;2023-09-19T11:53:01;18.60;86.60
3186;DHT22;1604;53.700;10.252;2023-09-19T11:56:06;18.70;86.50
3186;DHT22;1604;53.700;10.252;2023-09-19T11:59:11;18.80;84.50
3186;DHT22;1604;53.700;10.252;2023-09-19T12:02:18;18.90;85.50
3186;DHT22;1604;53.700;10.252;2023-09-19T12:05:29;18.90;84.50
3186;DHT22;1604;53.700;10.252;2023-09-19T12:08:35;18.90;83.90
3186;DHT22;1604;53.700;10.252;2023-09-19T12:11:42;18.90;82.40
3186;DHT22;1604;53.700;10.252;2023-09-19T12:14:48;18.90;81.80
3186;DHT22;1604;53.700;10.252;2023-09-19T12:17:50;18.90;82.60
3186;DHT22;1604;53.700;10.252;2023-09-19T12:20:52;19.00;81.60
3186;DHT22;1604;53.700;10.252;2023-09-19T12:24:07;19.00;83.70
3186;DHT22;1604;53.700;10.252;2023-09-19T12:27:14;19.10;82.90
3186;DHT22;1604;53.700;10.252;2023-09-19T12:30:16;19.10;82.70
3186;DHT22;1604;53.700;10.252;2023-09-19T12:33:21;19.20;82.70
3186;DHT22;1604;53.700;10.252;2023-09-19T12:36:27;19.20;82.80
3186;DHT22;1604;53.700;10.252;2023-09-19T12:39:32;19.30;82.00
3186;DHT22;1604;53.700;10.252;2023-09-19T12:42:36;19.40;81.80
3186;DHT22;1604;53.700;10.252;2023-09-19T12:45:38;19.50;80.40
3186;DHT22;1604;53.700;10.252;2023-09-19T12:48:40;19.60;79.30
3186;DHT22;1604;53.700;10.252;2023-09-19T12:51:45;19.60;79.30
3186;DHT22;1604;53.700;10.252;2023-09-19T12:54:49;19.70;77.80
3186;DHT22;1604;53.700;10.252;2023-09-19T12:58:07;19.80;79.50
3186;DHT22;1604;53.700;10.252;2023-09-19T13:01:14;19.80;80.10
3186;DHT22;1604;53.700;10.252;2023-09-19T13:04:17;19.80;78.50
3186;DHT22;1604;53.700;10.252;2023-09-19T13:07:41;19.90;78.10
3186;DHT22;1604;53.700;10.252;2023-09-19T13:11:21;19.90;78.50
3186;DHT22;1604;53.700;10.252;2023-09-19T13:14:25;19.80;80.40
3186;DHT22;1604;53.700;10.252;2023-09-19T13:17:42;19.80;79.80
3186;DHT22;1604;53.700;10.252;2023-09-19T13:21:05;19.80;81.00
3186;DHT22;1604;53.700;10.252;2023-09-19T13:24:18;19.90;79.90
3186;DHT22;1604;53.700;10.252;2023-09-19T13:27:22;20.00;77.30
3186;DHT22;1604;53.700;10.252;2023-09-19T13:30:27;20.00;75.80
3186;DHT22;1604;53.700;10.252;2023-09-19T13:33:32;19.90;76.50
3186;DHT22;1604;53.700;10.252;2023-09-19T13:36:34;19.90;76.70
3186;DHT22;1604;53.700;10.252;2023-09-19T13:39:37;19.90;76.70
3186;DHT22;1604;53.700;10.252;2023-09-19T13:42:44;19.80;75.00
3186;DHT22;1604;53.700;10.252;2023-09-19T13:45:46;19.70;76.00
3186;DHT22;1604;53.700;10.252;2023-09-19T13:48:48;19.60;77.40
3186;DHT22;1604;53.700;10.252;2023-09-19T13:51:50;19.50;78.60
3186;DHT22;1604;53.700;10.252;2023-09-19T13:54:53;19.50;78.50
3186;DHT22;1604;53.700;10.252;2023-09-19T13:57:58;19.50;77.60
3186;DHT22;1604;53.700;10.252;2023-09-19T14:01:00;19.50;77.90
3186;DHT22;1604;53.700;10.252;2023-09-19T14:04:04;19.50;76.70
3186;DHT22;1604;53.700;10.252;2023-09-19T14:07:09;19.50;76.60
3186;DHT22;1604;53.700;10.252;2023-09-19T14:10:12;19.50;77.80
3186;DHT22;1604;53.700;10.252;2023-09-19T14:13:19;19.50;77.60
3186;DHT22;1604;53.700;10.252;2023-09-19T14:16:25;19.60;77.40
3186;DHT22;1604;53.700;10.252;2023-09-19T14:19:30;19.60;75.30
3186;DHT22;1604;53.700;10.252;2023-09-19T14:22:34;19.70;77.20
3186;DHT22;1604;53.700;10.252;2023-09-19T14:25:37;19.70;76.80
3186;DHT22;1604;53.700;10.252;2023-09-19T14:28:40;19.80;75.70
3186;DHT22;1604;53.700;10.252;2023-09-19T14:31:43;19.80;75.00
3186;DHT22;1604;53.700;10.252;2023-09-19T14:34:45;19.80;75.50
3186;DHT22;1604;53.700;10.252;2023-09-19T14:37:50;19.80;74.80
3186;DHT22;1604;53.700;10.252;2023-09-19T14:40:59;19.80;75.20
3186;DHT22;1604;53.700;10.252;2023-09-19T14:44:04;19.70;76.30
3186;DHT22;1604;53.700;10.252;2023-09-19T14:47:06;19.70;75.80
3186;DHT22;1604;53.700;10.252;2023-09-19T14:50:09;19.70;75.00
3186;DHT22;1604;53.700;10.252;2023-09-19T14:53:14;19.70;75.30
3186;DHT22;1604;53.700;10.252;2023-09-19T14:56:15;19.60;76.40
3186;DHT22;1604;53.700;10.252;2023-09-19T14:59:21;19.60;75.90
3186;DHT22;1604;53.700;10.252;2023-09-19T15:02:24;19.50;77.30
3186;DHT22;1604;53.700;10.252;2023-09-19T15:05:27;19.50;77.80
3186;DHT22;1604;53.700;10.252;2023-09-19T15:08:30;19.40;79.30
3186;DHT22;1604;53.700;10.252;2023-09-19T15:11:34;19.40;79.00
3186;DHT22;1604;53.700;10.252;2023-09-19T15:14:37;19.30;79.20
3186;DHT22;1604;53.700;10.252;2023-09-19T15:17:39;19.30;79.90
3186;DHT22;1604;53.700;10.252;2023-09-19T15:20:43;19.30;80.40
3186;DHT22;1604;53.700;10.252;2023-09-19T15:23:46;19.30;81.80
3186;DHT22;1604;53.700;10.252;2023-09-19T15:26:48;19.20;82.60
3186;DHT22;1604;53.700;10.252;2023-09-19T15:29:52;19.20;82.30
3186;DHT22;1604;53.700;10.252;2023-09-19T15:32:54;19.10;83.10
3186;DHT22;1604;53.700;10.252;2023-09-19T15:36:06;19.10;83.50
3186;DHT22;1604;53.700;10.252;2023-09-19T15:39:09;19.10;83.70
3186;DHT22;1604;53.700;10.252;2023-09-19T15:42:12;19.10;84.00
3186;DHT22;1604;53.700;10.252;2023-09-19T15:45:18;19.10;84.10
3186;DHT22;1604;53.700;10.252;2023-09-19T15:48:20;19.00;84.40
3186;DHT22;1604;53.700;10.252;2023-09-19T15:51:22;19.00;85.40
3186;DHT22;1604;53.700;10.252;2023-09-19T15:54:25;18.90;85.20
3186;DHT22;1604;53.700;10.252;2023-09-19T15:57:28;18.90;86.30
3186;DHT22;1604;53.700;10.252;2023-09-19T16:00:32;18.90;87.40
3186;DHT22;1604;53.700;10.252;2023-09-19T16:03:35;18.90;86.60
3186;DHT22;1604;53.700;10.252;2023-09-19T16:06:38;18.90;87.00
3186;DHT22;1604;53.700;10.252;2023-09-19T16:09:40;18.90;86.20
3186;DHT22;1604;53.700;10.252;2023-09-19T16:12:42;18.90;86.80
3186;DHT22;1604;53.700;10.252;2023-09-19T16:15:45;18.80;87.40
3186;DHT22;1604;53.700;10.252;2023-09-19T16:18:49;18.80;87.20
3186;DHT22;1604;53.700;10.252;2023-09-19T16:21:51;18.80;87.60
3186;DHT22;1604;53.700;10.252;2023-09-19T16:24:53;18.80;87.50
3186;DHT22;1604;53.700;10.252;2023-09-19T16:27:55;18.70;87.40
3186;DHT22;1604;53.700;10.252;2023-09-19T16:30:59;18.70;87.20
3186;DHT22;1604;53.700;10.252;2023-09-19T16:34:02;18.70;86.80
3186;DHT22;1604;53.700;10.252;2023-09-19T16:37:06;18.70;86.90
3186;DHT22;1604;53.700;10.252;2023-09-19T16:40:08;18.70;86.90
3186;DHT22;1604;53.700;10.252;2023-09-19T16:43:10;18.70;86.70
3186;DHT22;1604;53.700;10.252;2023-09-19T16:46:14;18.60;86.90
3186;DHT22;1604;53.700;10.252;2023-09-19T16:49:17;18.60;86.90
3186;DHT22;1604;53.700;10.252;2023-09-19T16:52:19;18.60;86.70
3186;DHT22;1604;53.700;10.252;2023-09-19T16:55:21;18.60;86.70
3186;DHT22;1604;53.700;10.252;2023-09-19T16:58:23;18.60;86.20
3186;DHT22;1604;53.700;10.252;2023-09-19T17:01:27;18.60;87.10
3186;DHT22;1604;53.700;10.252;2023-09-19T17:04:29;18.50;87.20
3186;DHT22;1604;53.700;10.252;2023-09-19T17:07:31;18.60;87.30
3186;DHT22;1604;53.700;10.252;2023-09-19T17:10:34;18.50;87.70
3186;DHT22;1604;53.700;10.252;2023-09-19T17:13:36;18.60;87.30
3186;DHT22;1604;53.700;10.252;2023-09-19T17:16:40;18.50;87.90
3186;DHT22;1604;53.700;10.252;2023-09-19T17:19:42;18.60;87.00
3186;DHT22;1604;53.700;10.252;2023-09-19T17:22:44;18.60;86.90
3186;DHT22;1604;53.700;10.252;2023-09-19T17:25:46;18.60;87.40
3186;DHT22;1604;53.700;10.252;2023-09-19T17:28:50;18.50;88.40
3186;DHT22;1604;53.700;10.252;2023-09-19T17:31:53;18.50;88.10
3186;DHT22;1604;53.700;10.252;2023-09-19T17:34:55;18.50;88.30
3186;DHT22;1604;53.700;10.252;2023-09-19T17:38:01;18.50;88.00
3186;DHT22;1604;53.700;10.252;2023-09-19T17:41:04;18.60;87.90
3186;DHT22;1604;53.700;10.252;2023-09-19T17:44:08;18.60;87.70
3186;DHT22;1604;53.700;10.252;2023-09-19T17:47:13;18.70;87.70
3186;DHT22;1604;53.700;10.252;2023-09-19T17:50:17;18.60;87.70
3186;DHT22;1604;53.700;10.252;2023-09-19T17:53:20;18.60;88.10
3186;DHT22;1604;53.700;10.252;2023-09-19T17:56:29;18.60;88.50
3186;DHT22;1604;53.700;10.252;2023-09-19T17:59:31;18.60;88.00
3186;DHT22;1604;53.700;10.252;2023-09-19T18:02:36;18.60;87.70
3186;DHT22;1604;53.700;10.252;2023-09-19T18:05:43;18.60;88.10
3186;DHT22;1604;53.700;10.252;2023-09-19T18:08:45;18.50;88.10
3186;DHT22;1604;53.700;10.252;2023-09-19T18:11:48;18.60;88.10
3186;DHT22;1604;53.700;10.252;2023-09-19T18:14:50;18.60;87.40
3186;DHT22;1604;53.700;10.252;2023-09-19T18:17:53;18.60;87.80
3186;DHT22;1604;53.700;10.252;2023-09-19T18:21:09;18.70;87.30
3186;DHT22;1604;53.700;10.252;2023-09-19T18:24:13;18.70;86.70
3186;DHT22;1604;53.700;10.252;2023-09-19T18:27:39;18.70;87.00
3186;DHT22;1604;53.700;10.252;2023-09-19T18:30:42;18.60;87.60
3186;DHT22;1604;53.700;10.252;2023-09-19T18:33:45;18.70;87.00
3186;DHT22;1604;53.700;10.252;2023-09-19T18:37:01;18.70;87.40
3186;DHT22;1604;53.700;10.252;2023-09-19T18:40:04;18.60;87.70
3186;DHT22;1604;53.700;10.252;2023-09-19T18:43:06;18.60;87.80
3186;DHT22;1604;53.700;10.252;2023-09-19T18:46:08;18.60;87.70
3186;DHT22;1604;53.700;10.252;2023-09-19T18:49:25;18.60;87.80
3186;DHT22;1604;53.700;10.252;2023-09-19T18:52:28;18.70;87.50
3186;DHT22;1604;53.700;10.252;2023-09-19T18:55:30;18.70;87.50
3186;DHT22;1604;53.700;10.252;2023-09-19T18:58:32;18.60;87.40
3186;DHT22;1604;53.700;10.252;2023-09-19T19:01:35;18.60;87.70
3186;DHT22;1604;53.700;10.252;2023-09-19T19:04:39;18.60;87.50
3186;DHT22;1604;53.700;10.252;2023-09-19T19:07:42;18.60;88.00
3186;DHT22;1604;53.700;10.252;2023-09-19T19:10:44;18.60;88.20
3186;DHT22;1604;53.700;10.252;2023-09-19T19:13:45;18.60;88.00
3186;DHT22;1604;53.700;10.252;2023-09-19T19:16:47;18.60;88.70
3186;DHT22;1604;53.700;10.252;2023-09-19T19:20:04;18.60;88.60
3186;DHT22;1604;53.700;10.252;2023-09-19T19:23:26;18.60;88.60
3186;DHT22;1604;53.700;10.252;2023-09-19T19:26:42;18.60;89.30
3186;DHT22;1604;53.700;10.252;2023-09-19T19:29:46;18.50;89.30
3186;DHT22;1604;53.700;10.252;2023-09-19T19:32:48;18.60;89.30
3186;DHT22;1604;53.700;10.252;2023-09-19T19:36:12;18.60;89.30
3186;DHT22;1604;53.700;10.252;2023-09-19T19:39:28;18.60;89.40
3186;DHT22;1604;53.700;10.252;2023-09-19T19:42:30;18.60;89.70
3186;DHT22;1604;53.700;10.252;2023-09-19T19:45:53;18.60;89.80
3186;DHT22;1604;53.700;10.252;2023-09-19T19:48:56;18.60;89.90
3186;DHT22;1604;53.700;10.252;2023-09-19T19:52:00;18.50;90.70
3186;DHT22;1604;53.700;10.252;2023-09-19T19:55:04;18.50;90.70